Time;durP1;ratioP1;P1;durP2;ratioP2;P2;SDS_P1;SDS_P2;PMS_P1;PMS_P2;Temp;Humidity;BMP_temperature;BMP_pressure;BME280_temperature;BME280_humidity;BME280_pressure;Samples;Min_cycle;Max_cycle;Signal;HPM_P1;HPM_P2
2023/03/15 00:00:54;;;;;;;0.40;0.40;;;;;;;3.14;61.02;96192.19;5007108;28;20069;-57
2023/03/15 00:03:23;;;;;;;0.40;0.40;;;;;;;2.82;60.58;96157.56;5006625;28;20058;-57
2023/03/15 00:05:51;;;;;;;0.40;0.40;;;;;;;2.70;60.63;96150.16;5007253;28;20049;-56
2023/03/15 00:08:18;;;;;;;0.40;0.40;;;;;;;2.80;60.75;96182.50;5006626;28;20580;-57
2023/03/15 00:10:45;;;;;;;0.38;0.38;;;;;;;2.72;61.49;96179.88;5007224;28;20137;-55
2023/03/15 00:13:14;;;;;;;0.40;0.40;;;;;;;2.54;61.46;96142.97;5006860;28;20520;-58
2023/03/15 00:15:46;;;;;;;0.40;0.40;;;;;;;2.86;61.49;96180.38;5006919;28;20457;-56
2023/03/15 00:18:13;;;;;;;0.40;0.40;;;;;;;2.98;60.90;96172.16;5006901;28;20133;-58
2023/03/15 00:20:40;;;;;;;0.40;0.40;;;;;;;2.82;61.81;96157.56;5006535;28;20062;-54
2023/03/15 00:23:07;;;;;;;0.40;0.40;;;;;;;2.93;61.37;96153.22;5006480;28;20054;-56
2023/03/15 00:25:34;;;;;;;0.40;0.40;;;;;;;2.92;60.40;96151.66;5006570;28;20057;-54
2023/03/15 00:28:01;;;;;;;0.40;0.40;;;;;;;3.03;59.70;96147.31;5006812;28;20053;-54
2023/03/15 00:30:27;;;;;;;0.40;0.40;;;;;;;2.51;61.05;96075.34;5006255;28;20054;-54
2023/03/15 00:32:54;;;;;;;0.40;0.40;;;;;;;2.25;61.97;96044.81;5021809;28;20133;-55
2023/03/15 00:35:22;;;;;;;0.40;0.40;;;;;;;3.06;61.20;96141.13;5006286;28;20057;-56
2023/03/15 00:37:55;;;;;;;0.40;0.40;;;;;;;3.06;62.21;96154.81;5006495;28;20204;-56
2023/03/15 00:40:23;;;;;;;0.40;0.40;;;;;;;3.11;62.44;96132.72;5021624;28;20057;-57
2023/03/15 00:42:50;;;;;;;0.47;0.47;;;;;;;3.14;63.55;96123.81;5005308;28;20085;-55
2023/03/15 00:45:20;;;;;;;0.40;0.40;;;;;;;3.09;65.42;96124.84;5005956;28;20053;-54
2023/03/15 00:47:51;;;;;;;0.40;0.40;;;;;;;2.66;65.76;96074.63;5021404;28;20046;-56
2023/03/15 00:50:20;;;;;;;0.40;0.40;;;;;;;2.87;65.65;96111.66;5006220;28;20062;-57
2023/03/15 00:52:47;;;;;;;0.40;0.40;;;;;;;2.83;65.43;96104.47;5006291;28;20575;-58
2023/03/15 00:55:16;;;;;;;0.50;0.50;;;;;;;2.36;65.17;96037.78;5005492;28;20104;-56
2023/03/15 00:57:45;;;;;;;0.40;0.40;;;;;;;2.84;65.16;96101.41;5004904;28;20517;-58
2023/03/15 01:00:15;;;;;;;0.40;0.40;;;;;;;2.91;65.23;96090.69;5005802;28;20054;-57
2023/03/15 01:02:42;;;;;;;0.40;0.40;;;;;;;2.80;64.60;96086.00;5006335;28;20178;-58
2023/03/15 01:05:09;;;;;;;0.40;0.40;;;;;;;2.39;63.85;96024.22;5005706;28;20160;-58
2023/03/15 01:07:36;;;;;;;0.40;0.40;;;;;;;2.69;64.08;96060.28;5005370;28;20056;-56
2023/03/15 01:10:05;;;;;;;0.50;0.50;;;;;;;2.78;64.35;96071.91;5004579;28;20587;-58
2023/03/15 01:12:32;;;;;;;0.40;0.40;;;;;;;2.87;64.19;96064.38;5020259;28;20054;-58
2023/03/15 01:15:00;;;;;;;0.40;0.40;;;;;;;2.44;63.30;96015.00;5004937;28;20108;-58
2023/03/15 01:17:27;;;;;;;0.40;0.40;;;;;;;2.79;63.66;96065.28;5005374;28;20054;-58
2023/03/15 01:19:54;;;;;;;0.40;0.40;;;;;;;2.19;63.50;95969.72;5004597;28;20500;-57
2023/03/15 01:22:21;;;;;;;0.40;0.40;;;;;;;2.90;62.84;96066.41;5006055;28;20074;-58
2023/03/15 01:24:47;;;;;;;0.40;0.40;;;;;;;2.89;63.64;96048.41;5005613;28;20081;-58
2023/03/15 01:27:14;;;;;;;0.40;0.40;;;;;;;3.00;63.47;96050.31;5004629;28;20121;-56
2023/03/15 01:29:41;;;;;;;0.40;0.40;;;;;;;3.02;62.81;96048.03;5005451;28;20050;-56
2023/03/15 01:32:08;;;;;;;0.40;0.40;;;;;;;3.09;62.88;96047.44;5005715;28;20085;-57
2023/03/15 01:34:35;;;;;;;0.40;0.40;;;;;;;2.45;62.45;95983.81;5005487;28;20050;-57
2023/03/15 01:37:02;;;;;;;0.40;0.40;;;;;;;2.91;63.21;96048.84;5005986;28;20084;-56
2023/03/15 01:39:29;;;;;;;0.40;0.40;;;;;;;2.87;62.99;96056.16;5005477;28;20050;-57
2023/03/15 01:41:56;;;;;;;0.40;0.40;;;;;;;2.98;62.63;96043.59;5020605;28;20177;-58
2023/03/15 01:44:23;;;;;;;0.40;0.40;;;;;;;3.03;62.75;96052.34;5004999;28;20046;-58
2023/03/15 01:46:50;;;;;;;0.40;0.40;;;;;;;2.88;63.86;96055.00;5005383;28;20099;-58
2023/03/15 01:49:24;;;;;;;0.40;0.40;;;;;;;2.93;63.85;96049.31;4998435;28;20567;-57
2023/03/15 01:52:14;;;;;;;0.40;0.40;;;;;;;2.93;64.65;96039.19;4986071;28;20112;-58
2023/03/15 01:54:52;;;;;;;0.40;0.40;;;;;;;2.93;64.33;96028.22;4985223;28;20054;-58
2023/03/15 01:57:26;;;;;;;0.40;0.40;;;;;;;3.00;63.92;96028.44;4985175;28;20116;-56
2023/03/15 02:00:10;;;;;;;0.40;0.40;;;;;;;3.06;64.03;96021.59;4985287;28;20054;-58
2023/03/15 02:02:46;;;;;;;0.50;0.50;;;;;;;3.06;64.09;96031.72;4985872;28;20046;-57
2023/03/15 02:05:19;;;;;;;0.47;0.47;;;;;;;2.63;64.97;95949.59;4984789;28;20053;-59
2023/03/15 02:07:53;;;;;;;0.40;0.40;;;;;;;3.10;65.54;96032.63;4985249;28;20113;-58
2023/03/15 02:10:27;;;;;;;0.40;0.40;;;;;;;2.72;65.32;95972.13;4978990;28;20092;-57
2023/03/15 02:12:54;;;;;;;0.40;0.40;;;;;;;2.98;65.67;96025.25;4985309;28;20525;-57
2023/03/15 02:15:21;;;;;;;0.40;0.40;;;;;;;2.97;65.67;96025.63;4984787;28;20054;-58
2023/03/15 02:17:48;;;;;;;0.40;0.40;;;;;;;2.77;65.22;95991.00;4985248;28;20082;-58
2023/03/15 02:20:36;;;;;;;0.40;0.40;;;;;;;3.07;64.64;96027.84;4983119;28;20513;-58
2023/03/15 02:23:07;;;;;;;0.40;0.40;;;;;;;2.81;64.23;95959.13;4985070;28;20533;-58
2023/03/15 02:25:52;;;;;;;0.50;0.50;;;;;;;3.22;64.55;96018.09;4984629;28;20054;-57
2023/03/15 02:28:19;;;;;;;0.40;0.40;;;;;;;3.11;64.62;96017.81;4999967;28;20134;-57
2023/03/15 02:30:47;;;;;;;0.40;0.40;;;;;;;3.04;65.02;96014.88;4984687;28;20057;-59
2023/03/15 02:33:26;;;;;;;0.40;0.40;;;;;;;3.16;64.99;96011.28;4985160;28;20050;-56
2023/03/15 02:35:53;;;;;;;0.40;0.40;;;;;;;1.13;63.99;95660.84;4985110;28;20092;-59
2023/03/15 02:38:21;;;;;;;0.40;0.40;;;;;;;3.29;63.62;95997.19;4983528;28;20112;-57
2023/03/15 02:40:51;;;;;;;0.40;0.40;;;;;;;3.33;64.20;95986.34;4984901;28;20057;-58
2023/03/15 02:43:23;;;;;;;0.40;0.40;;;;;;;3.38;63.46;95984.19;4984820;28;20058;-58
2023/03/15 02:45:50;;;;;;;0.40;0.40;;;;;;;3.44;63.43;95980.03;4999459;28;20058;-58
2023/03/15 02:48:18;;;;;;;0.40;0.40;;;;;;;2.49;67.69;95987.44;4994745;28;20053;-59
2023/03/15 02:50:44;;;;;;;0.40;0.40;;;;;;;2.46;69.56;95990.88;5003995;28;20096;-58
2023/03/15 02:53:11;;;;;;;0.40;0.40;;;;;;;2.75;69.01;95996.06;5019550;28;20572;-58
2023/03/15 02:55:38;;;;;;;0.43;0.43;;;;;;;2.37;67.67;95908.25;5018858;28;20066;-58
2023/03/15 02:58:05;;;;;;;0.40;0.40;;;;;;;2.50;66.27;95916.03;5004244;28;20078;-58
2023/03/15 03:00:31;;;;;;;0.40;0.40;;;;;;;3.00;65.69;95978.41;5004293;28;20077;-57
2023/03/15 03:02:58;;;;;;;0.40;0.40;;;;;;;3.06;65.75;95977.03;5004447;28;20089;-58
2023/03/15 03:05:25;;;;;;;0.40;0.40;;;;;;;2.88;64.63;95945.63;5019039;28;20586;-57
2023/03/15 03:07:52;;;;;;;0.40;0.40;;;;;;;2.39;65.58;95919.59;5005527;28;20058;-58
2023/03/15 03:10:19;;;;;;;0.40;0.40;;;;;;;2.74;66.08;95986.25;5008270;28;20131;-58
2023/03/15 03:12:46;;;;;;;0.40;0.40;;;;;;;2.38;65.03;95907.88;5023065;28;20073;-57
2023/03/15 03:15:13;;;;;;;0.40;0.40;;;;;;;2.87;64.59;95985.06;5007950;28;20053;-57
2023/03/15 03:17:39;;;;;;;0.40;0.40;;;;;;;2.54;64.58;95943.47;5008148;28;20089;-58
2023/03/15 03:20:08;;;;;;;0.40;0.40;;;;;;;2.80;65.43;95979.38;5007973;28;20476;-58
2023/03/15 03:22:36;;;;;;;0.40;0.40;;;;;;;2.97;65.09;95970.91;5008071;28;20068;-56
2023/03/15 03:25:05;;;;;;;0.40;0.40;;;;;;;2.42;67.43;95968.13;5022736;28;20083;-56
2023/03/15 03:27:35;;;;;;;0.40;0.40;;;;;;;2.05;68.93;95980.19;5007603;28;20046;-58
2023/03/15 03:30:07;;;;;;;0.40;0.40;;;;;;;1.90;69.32;95967.25;5007810;28;20081;-59
2023/03/15 03:32:34;;;;;;;0.40;0.40;;;;;;;2.00;69.45;95942.19;5008076;28;20492;-58
2023/03/15 03:35:01;;;;;;;0.40;0.40;;;;;;;2.01;69.40;95979.31;5007460;28;20053;-58
2023/03/15 03:37:29;;;;;;;0.30;0.30;;;;;;;1.85;69.50;95942.91;5022306;28;20077;-57
2023/03/15 03:39:57;;;;;;;0.40;0.40;;;;;;;1.74;69.15;95941.75;5007953;28;20516;-56
2023/03/15 03:42:24;;;;;;;0.40;0.40;;;;;;;1.86;70.01;95977.25;5007057;28;20092;-59
2023/03/15 03:44:52;;;;;;;0.32;0.32;;;;;;;1.59;70.88;96000.53;5007385;28;20084;-58
2023/03/15 03:47:19;;;;;;;0.40;0.40;;;;;;;1.40;71.27;95960.16;5007067;28;20049;-58
2023/03/15 03:49:46;;;;;;;0.32;0.32;;;;;;;1.58;70.56;95943.56;5007125;28;20508;-56
2023/03/15 03:52:13;;;;;;;0.35;0.35;;;;;;;2.00;70.43;95983.16;5007480;28;20056;-58
2023/03/15 03:54:41;;;;;;;0.40;0.40;;;;;;;2.11;69.41;95979.63;5006952;28;20085;-57
2023/03/15 03:57:09;;;;;;;0.30;0.30;;;;;;;2.21;68.73;95983.84;5008107;28;20060;-58
2023/03/15 03:59:36;;;;;;;0.40;0.40;;;;;;;2.27;69.02;95971.53;5022223;28;20081;-57
2023/03/15 04:02:02;;;;;;;0.40;0.40;;;;;;;2.23;69.18;95992.50;5006974;28;20119;-56
2023/03/15 04:04:29;;;;;;;0.40;0.40;;;;;;;2.39;69.30;95977.78;5007549;28;20081;-56
2023/03/15 04:06:55;;;;;;;0.50;0.50;;;;;;;2.46;69.00;95975.28;5007101;28;20133;-58
2023/03/15 04:09:23;;;;;;;0.40;0.40;;;;;;;1.62;69.72;95835.31;5006884;28;20096;-59
2023/03/15 04:11:50;;;;;;;0.40;0.40;;;;;;;2.62;68.57;95975.34;5005774;28;20109;-58
2023/03/15 04:14:17;;;;;;;0.40;0.40;;;;;;;2.45;68.48;95973.66;5006825;28;20050;-58
2023/03/15 04:16:43;;;;;;;0.40;0.40;;;;;;;2.39;68.19;95985.97;5007082;28;20493;-56
2023/03/15 04:19:11;;;;;;;0.40;0.40;;;;;;;2.36;68.25;95983.13;5006136;28;20042;-57
2023/03/15 04:21:38;;;;;;;0.40;0.40;;;;;;;2.34;68.52;95971.78;5022218;28;20053;-57
2023/03/15 04:24:06;;;;;;;0.40;0.40;;;;;;;2.49;68.21;95995.63;5006125;28;20046;-60
2023/03/15 04:26:33;;;;;;;0.40;0.40;;;;;;;2.04;69.17;95984.09;5007145;28;20148;-57
2023/03/15 04:29:00;;;;;;;0.40;0.40;;;;;;;2.15;69.69;95985.22;5006916;28;20061;-57
2023/03/15 04:31:27;;;;;;;0.40;0.40;;;;;;;2.11;69.08;95973.38;5006877;28;20057;-58
2023/03/15 04:33:54;;;;;;;0.40;0.40;;;;;;;2.35;68.80;95990.53;5006539;28;20060;-59
2023/03/15 04:36:22;;;;;;;0.40;0.40;;;;;;;2.39;68.75;95996.09;5006512;28;20077;-59
2023/03/15 04:38:49;;;;;;;0.40;0.40;;;;;;;2.50;68.85;95986.28;5006476;28;20476;-58
2023/03/15 04:41:17;;;;;;;0.40;0.40;;;;;;;2.12;68.42;95909.44;5006745;28;20058;-58
2023/03/15 04:43:44;;;;;;;0.40;0.40;;;;;;;2.55;68.74;95977.84;5005886;28;20054;-58
2023/03/15 04:46:11;;;;;;;0.40;0.40;;;;;;;2.53;69.40;95977.44;5020969;28;20060;-56
2023/03/15 04:48:37;;;;;;;0.40;0.40;;;;;;;1.65;70.60;95922.75;5006418;28;20475;-58
2023/03/15 04:51:04;;;;;;;0.30;0.30;;;;;;;2.19;71.21;95973.25;5021440;28;20104;-58
2023/03/15 04:53:31;;;;;;;0.40;0.40;;;;;;;2.30;71.29;95981.78;5021280;28;20050;-56
2023/03/15 04:55:58;;;;;;;0.40;0.40;;;;;;;2.21;71.40;95962.00;5006280;28;20061;-56
2023/03/15 04:58:25;;;;;;;0.40;0.40;;;;;;;2.43;70.59;95991.56;4989217;28;20085;-58
2023/03/15 05:00:52;;;;;;;0.40;0.40;;;;;;;2.56;69.77;95979.47;4988459;28;20322;-58
2023/03/15 05:03:20;;;;;;;0.40;0.40;;;;;;;2.66;69.90;95978.97;4986131;28;20050;-58
2023/03/15 05:05:46;;;;;;;0.30;0.30;;;;;;;2.74;69.42;95988.97;4986520;28;20503;-57
2023/03/15 05:08:13;;;;;;;0.40;0.40;;;;;;;2.75;69.78;95987.84;4986582;28;20559;-58
2023/03/15 05:10:39;;;;;;;0.40;0.40;;;;;;;2.42;69.49;95940.78;4986366;28;20501;-57
2023/03/15 05:13:06;;;;;;;0.40;0.40;;;;;;;2.25;69.08;95908.25;5001657;28;20104;-58
2023/03/15 05:15:33;;;;;;;0.40;0.40;;;;;;;2.90;69.25;95985.19;4986416;28;20113;-56
2023/03/15 05:18:00;;;;;;;0.40;0.40;;;;;;;2.97;68.86;95970.91;4986443;28;20102;-58
2023/03/15 05:20:27;;;;;;;0.40;0.40;;;;;;;2.88;68.75;95971.06;4985962;28;20076;-57
2023/03/15 05:22:54;;;;;;;0.40;0.40;;;;;;;2.23;68.66;95916.00;4986053;28;20058;-58
2023/03/15 05:25:21;;;;;;;0.40;0.40;;;;;;;2.59;68.45;95913.19;4986082;28;20050;-56
2023/03/15 05:27:47;;;;;;;0.43;0.43;;;;;;;3.09;68.38;95954.44;4985695;28;20090;-57
2023/03/15 05:30:15;;;;;;;0.40;0.40;;;;;;;3.26;67.87;95951.38;4985552;28;20313;-59
2023/03/15 05:32:43;;;;;;;0.40;0.40;;;;;;;3.28;68.50;95946.38;5000755;28;20140;-56
2023/03/15 05:35:11;;;;;;;0.40;0.40;;;;;;;3.35;68.21;95946.53;4985996;28;20422;-57
2023/03/15 05:37:38;;;;;;;0.40;0.40;;;;;;;3.44;67.80;95938.97;4986115;28;20121;-58
2023/03/15 05:40:07;;;;;;;0.45;0.45;;;;;;;3.04;67.30;95875.38;4985238;28;21014;-57
2023/03/15 05:42:34;;;;;;;0.40;0.40;;;;;;;3.74;67.98;95951.09;4985279;28;20065;-58
2023/03/15 05:45:01;;;;;;;0.40;0.40;;;;;;;3.43;66.86;95904.53;4985401;28;20050;-57
2023/03/15 05:47:27;;;;;;;0.50;0.50;;;;;;;3.85;67.59;95949.41;4985610;28;20050;-58
2023/03/15 05:49:54;;;;;;;0.40;0.40;;;;;;;3.96;66.98;95955.16;5003715;28;20041;-59
2023/03/15 05:52:20;;;;;;;0.40;0.40;;;;;;;3.86;66.66;95929.09;5005420;28;20485;-57
2023/03/15 05:54:47;;;;;;;0.40;0.40;;;;;;;4.25;66.41;95952.72;5004536;28;20049;-59
2023/03/15 05:57:14;;;;;;;0.50;0.50;;;;;;;4.36;65.70;95953.75;5005196;28;20479;-57
2023/03/15 05:59:41;;;;;;;0.50;0.50;;;;;;;4.49;65.03;95940.72;5004849;28;20479;-57
2023/03/15 06:02:07;;;;;;;0.50;0.50;;;;;;;4.54;64.55;95949.47;5003589;28;20459;-58
2023/03/15 06:04:36;;;;;;;0.50;0.50;;;;;;;4.75;63.56;95953.81;5004721;28;20049;-57
2023/03/15 06:07:03;;;;;;;0.50;0.50;;;;;;;4.64;63.95;95934.41;5003751;28;20046;-58
2023/03/15 06:09:30;;;;;;;0.50;0.50;;;;;;;4.94;63.67;95962.06;5002700;28;20065;-57
2023/03/15 06:11:57;;;;;;;0.50;0.50;;;;;;;5.01;63.79;95962.22;4985656;28;20061;-57
2023/03/15 06:14:26;;;;;;;0.50;0.50;;;;;;;5.09;63.69;95959.25;4985217;28;20160;-58
2023/03/15 06:16:52;;;;;;;0.50;0.50;;;;;;;5.14;63.08;95966.44;4985516;28;20046;-59
2023/03/15 06:19:20;;;;;;;0.40;0.40;;;;;;;5.32;63.09;95962.06;4984690;28;20074;-57
2023/03/15 06:21:47;;;;;;;0.50;0.50;;;;;;;5.46;62.45;95998.03;4985605;28;20060;-59
2023/03/15 06:24:14;;;;;;;0.60;0.60;;;;;;;5.57;62.24;95979.81;4999559;28;20431;-57
2023/03/15 06:26:40;;;;;;;0.50;0.50;;;;;;;4.94;62.18;95868.78;4985092;28;20498;-57
2023/03/15 06:29:07;;;;;;;0.47;0.47;;;;;;;5.52;62.84;95971.84;4983207;28;20567;-57
2023/03/15 06:31:34;;;;;;;0.60;0.60;;;;;;;5.60;62.07;95970.84;4983634;28;20069;-57
2023/03/15 06:34:00;;;;;;;0.50;0.50;;;;;;;5.68;62.64;95939.59;4982942;28;20469;-57
2023/03/15 06:36:27;;;;;;;0.50;0.50;;;;;;;5.48;63.08;95949.03;4984873;28;20057;-57
2023/03/15 06:38:54;;;;;;;0.50;0.50;;;;;;;5.80;63.68;95955.91;4984629;28;20141;-59
2023/03/15 06:41:20;;;;;;;0.50;0.50;;;;;;;5.57;63.77;95930.38;4985029;28;20892;-57
2023/03/15 06:43:47;;;;;;;0.60;0.60;;;;;;;5.49;63.61;95884.72;4984814;28;20133;-57
2023/03/15 06:46:14;;;;;;;0.60;0.60;;;;;;;5.69;63.00;95883.50;5007258;28;20435;-57
2023/03/15 06:48:41;;;;;;;0.60;0.60;;;;;;;5.49;64.21;95879.22;5002974;28;20068;-57
2023/03/15 06:51:08;;;;;;;0.50;0.50;;;;;;;6.09;61.91;95942.31;5016509;28;20461;-60
2023/03/15 06:53:35;;;;;;;0.50;0.50;;;;;;;6.14;61.95;95943.94;5001416;28;20516;-58
2023/03/15 06:56:02;;;;;;;0.60;0.60;;;;;;;6.31;61.23;95937.91;5003190;28;20046;-55
2023/03/15 06:58:28;;;;;;;0.50;0.50;;;;;;;5.60;61.09;95808.78;5003778;28;20100;-56
2023/03/15 07:00:55;;;;;;;0.50;0.50;;;;;;;6.48;60.21;95931.88;5010775;28;20076;-56
2023/03/15 07:03:22;;;;;;;0.50;0.50;;;;;;;6.47;60.72;95900.06;5003366;28;20058;-55
2023/03/15 07:05:52;;;;;;;0.50;0.50;;;;;;;6.66;60.53;95930.19;5002620;28;20464;-56
2023/03/15 07:08:21;;;;;;;0.52;0.52;;;;;;;6.37;59.37;95848.44;5003099;28;20519;-57
2023/03/15 07:10:49;;;;;;;0.60;0.60;;;;;;;7.21;58.57;95958.81;5003001;28;20062;-58
2023/03/15 07:13:17;;;;;;;0.60;0.60;;;;;;;7.10;58.56;95939.41;5002905;28;20053;-57
2023/03/15 07:15:44;;;;;;;0.60;0.60;;;;;;;7.51;58.83;95921.78;5003312;28;20100;-58
2023/03/15 07:18:10;;;;;;;0.50;0.50;;;;;;;7.45;58.79;95936.28;5003636;28;20325;-56
2023/03/15 07:20:37;;;;;;;0.60;0.60;;;;;;;7.51;57.83;95919.03;5003506;28;20073;-57
2023/03/15 07:23:04;;;;;;;0.60;0.60;;;;;;;7.91;58.10;95948.56;5003375;28;20489;-57
2023/03/15 07:25:30;;;;;;;0.60;0.60;;;;;;;7.94;57.46;95931.25;5001205;28;20078;-57
2023/03/15 07:28:01;;;;;;;0.70;0.70;;;;;;;7.77;56.63;95854.72;5002174;28;20504;-57
2023/03/15 07:30:28;;;;;;;0.60;0.60;;;;;;;7.54;59.04;95910.00;5001103;28;20970;-52
2023/03/15 07:32:55;;;;;;;0.68;0.68;;;;;;;7.90;59.05;95883.59;5009183;28;20049;-56
2023/03/15 07:35:22;;;;;;;0.70;0.70;;;;;;;8.66;57.08;95928.72;5004424;28;20111;-56
2023/03/15 07:37:48;;;;;;;0.70;0.70;;;;;;;8.29;56.11;95835.06;4984134;28;20537;-56
2023/03/15 07:40:15;;;;;;;0.60;0.60;;;;;;;6.80;61.04;95856.09;4983500;28;20152;-56
2023/03/15 07:42:42;;;;;;;0.65;0.65;;;;;;;6.81;62.99;95885.16;4997921;28;20149;-58
2023/03/15 07:45:09;;;;;;;0.60;0.60;;;;;;;7.41;63.40;95918.94;5003164;28;20050;-55
2023/03/15 07:47:36;;;;;;;0.60;0.60;;;;;;;7.43;61.52;95812.69;5001699;28;20050;-56
2023/03/15 07:50:04;;;;;;;0.70;0.70;;;;;;;7.46;60.93;95822.94;5001499;28;20058;-55
2023/03/15 07:52:31;;;;;;;0.70;0.70;;;;;;;8.21;60.40;95890.50;5001669;28;20054;-58
2023/03/15 07:54:58;;;;;;;0.70;0.70;;;;;;;8.39;61.21;95908.03;5004307;28;20081;-55
2023/03/15 07:57:24;;;;;;;0.60;0.60;;;;;;;8.56;61.03;95893.53;5004761;28;20119;-56
2023/03/15 07:59:54;;;;;;;0.70;0.70;;;;;;;9.32;59.13;95894.28;5005884;28;20054;-55
2023/03/15 08:02:21;;;;;;;0.75;0.75;;;;;;;9.48;58.45;95887.25;5006113;28;20050;-56
2023/03/15 08:04:50;;;;;;;0.73;0.73;;;;;;;8.31;58.51;95776.72;5004628;28;20112;-55
2023/03/15 08:07:16;;;;;;;0.70;0.70;;;;;;;9.06;59.32;95887.09;5006629;28;20057;-54
2023/03/15 08:09:43;;;;;;;0.73;0.73;;;;;;;9.50;57.53;95851.69;4986820;28;20054;-56
2023/03/15 08:12:10;;;;;;;0.73;0.73;;;;;;;8.89;59.68;95883.09;5002653;28;20334;-56
2023/03/15 08:14:37;;;;;;;0.70;0.70;;;;;;;9.04;59.67;95870.13;5005071;28;20054;-55
2023/03/15 08:17:03;;;;;;;0.70;0.70;;;;;;;9.18;58.99;95867.41;5008479;28;20065;-58
2023/03/15 08:19:30;;;;;;;0.70;0.70;;;;;;;8.60;60.90;95870.31;5006311;28;20560;-55
2023/03/15 08:21:57;;;;;;;0.70;0.70;;;;;;;8.88;60.91;95869.66;5010540;28;20123;-54
2023/03/15 08:24:23;;;;;;;0.70;0.70;;;;;;;8.92;60.49;95871.25;5008530;28;20050;-56
2023/03/15 08:26:50;;;;;;;0.70;0.70;;;;;;;9.37;58.86;95858.78;5024730;28;20080;-60
2023/03/15 08:29:17;;;;;;;0.75;0.75;;;;;;;9.39;57.88;95778.25;5008873;28;20049;-60
2023/03/15 08:31:43;;;;;;;0.80;0.80;;;;;;;10.20;56.81;95854.53;5008226;28;20512;-56
2023/03/15 08:34:11;;;;;;;0.80;0.80;;;;;;;9.82;55.48;95772.31;5020721;28;20128;-56
2023/03/15 08:36:37;;;;;;;0.80;0.80;;;;;;;9.54;57.83;95846.97;5024232;28;20479;-56
2023/03/15 08:39:04;;;;;;;0.80;0.80;;;;;;;9.28;58.58;95805.84;5025669;28;20057;-59
2023/03/15 08:41:31;;;;;;;0.80;0.80;;;;;;;10.07;56.64;95847.00;5010238;28;20100;-57
2023/03/15 08:43:58;;;;;;;0.80;0.80;;;;;;;9.92;55.91;95801.97;5005963;28;20487;-57
2023/03/15 08:46:25;;;;;;;0.80;0.80;;;;;;;10.14;55.33;95824.88;5006299;28;20132;-59
2023/03/15 08:48:52;;;;;;;0.70;0.70;;;;;;;9.54;56.35;95780.63;5006394;28;20428;-56
2023/03/15 08:51:20;;;;;;;0.80;0.80;;;;;;;10.05;56.29;95827.25;5005783;28;20050;-56
2023/03/15 08:53:47;;;;;;;0.90;0.90;;;;;;;10.57;54.62;95809.78;5007302;28;20053;-58
2023/03/15 08:56:13;;;;;;;0.75;0.75;;;;;;;10.81;54.24;95805.34;5005157;28;20409;-54
2023/03/15 08:58:40;;;;;;;0.90;0.90;;;;;;;10.99;53.33;95797.72;5015355;28;20506;-58
2023/03/15 09:01:13;;;;;;;1.00;1.00;;;;;;;10.28;52.71;95692.03;5005098;28;20556;-58
2023/03/15 09:03:41;;;;;;;0.90;0.90;;;;;;;11.39;52.72;95789.59;5005551;28;20488;-58
2023/03/15 09:06:08;;;;;;;1.00;1.00;;;;;;;11.24;52.91;95792.88;5004673;28;20050;-58
2023/03/15 09:08:35;;;;;;;0.88;0.88;;;;;;;10.97;52.15;95756.56;5004547;28;20057;-58
2023/03/15 09:11:02;;;;;;;0.90;0.90;;;;;;;10.76;53.52;95778.06;5004220;28;20503;-57
2023/03/15 09:13:29;;;;;;;1.00;1.00;;;;;;;11.29;52.60;95776.59;5004432;28;20057;-58
2023/03/15 09:15:56;;;;;;;0.90;0.90;;;;;;;11.29;52.61;95770.25;5003187;28;20531;-58
2023/03/15 09:18:23;;;;;;;0.80;0.80;;;;;;;11.35;51.81;95780.50;5003645;28;20077;-57
2023/03/15 09:20:50;;;;;;;0.93;0.93;;;;;;;10.85;53.72;95775.63;5002755;28;20330;-54
2023/03/15 09:23:17;;;;;;;1.00;1.00;;;;;;;10.93;52.23;95705.16;4995666;28;20054;-57
2023/03/15 09:25:43;;;;;;;0.95;0.95;;;;;;;10.47;52.65;95700.66;4999481;28;20085;-58
2023/03/15 09:28:11;;;;;;;0.90;0.90;;;;;;;11.12;52.88;95765.59;5005026;28;20045;-57
2023/03/15 09:30:39;;;;;;;0.90;0.90;;;;;;;11.18;52.38;95755.66;5005112;28;20049;-59
2023/03/15 09:33:06;;;;;;;1.00;1.00;;;;;;;11.24;52.40;95767.94;5003659;28;20559;-58
2023/03/15 09:35:33;;;;;;;0.90;0.90;;;;;;;11.78;50.84;95767.16;5004869;28;20131;-57
2023/03/15 09:38:02;;;;;;;1.00;1.00;;;;;;;12.12;50.19;95766.03;5009118;28;20052;-57
2023/03/15 09:40:37;;;;;;;0.90;0.90;;;;;;;12.02;49.89;95768.91;5004598;28;20065;-59
2023/03/15 09:43:07;;;;;;;0.90;0.90;;;;;;;11.16;51.38;95763.63;4998672;28;20049;-56
2023/03/15 09:46:05;;;;;;;1.10;1.10;;;;;;;11.98;49.93;95763.41;5011866;28;20049;-57
2023/03/15 09:48:36;;;;;;;1.08;1.08;;;;;;;11.91;49.69;95763.47;5024429;28;20397;-57
2023/03/15 09:51:46;;;;;;;1.00;1.00;;;;;;;11.89;49.13;95717.91;5005971;28;20129;-56
2023/03/15 09:54:22;;;;;;;1.00;1.00;;;;;;;12.56;48.17;95751.31;5023918;28;20128;-57
2023/03/15 09:56:55;;;;;;;1.00;1.00;;;;;;;12.19;49.04;95754.09;5011453;28;20064;-59
2023/03/15 09:59:33;;;;;;;1.10;1.10;;;;;;;11.93;48.46;95699.25;5005319;28;20089;-60
2023/03/15 10:02:28;;;;;;;1.00;1.00;;;;;;;12.58;48.71;95748.91;5002712;28;20079;-59
2023/03/15 10:05:15;;;;;;;1.10;1.10;;;;;;;13.32;46.75;95751.53;5004045;28;20054;-56
2023/03/15 10:07:42;;;;;;;1.10;1.10;;;;;;;13.48;46.76;95756.47;5001999;28;20532;-57
2023/03/15 10:10:17;;;;;;;1.10;1.10;;;;;;;13.11;47.37;95782.41;5003090;28;20046;-58
2023/03/15 10:13:08;;;;;;;1.10;1.10;;;;;;;13.11;47.38;95754.59;5003022;28;20045;-57
2023/03/15 10:15:56;;;;;;;1.10;1.10;;;;;;;10.18;48.08;95361.63;5004179;28;20046;-57
2023/03/15 10:18:39;;;;;;;1.20;1.20;;;;;;;13.20;48.12;95752.09;5002820;28;20398;-57
2023/03/15 10:21:19;;;;;;;1.23;1.23;;;;;;;12.63;47.73;95703.22;5004109;28;20054;-57
2023/03/15 10:23:52;;;;;;;0.93;0.93;;;;;;;11.32;49.85;95683.50;5003892;28;20144;-57
2023/03/15 10:26:26;;;;;;;1.00;1.00;;;;;;;11.98;49.51;95732.09;5004076;28;20155;-56
2023/03/15 10:28:53;;;;;;;1.08;1.08;;;;;;;12.43;48.66;95728.03;5004078;28;20041;-57
2023/03/15 10:31:26;;;;;;;1.05;1.05;;;;;;;12.50;48.53;95702.97;5004173;28;20061;-57
2023/03/15 10:34:13;;;;;;;1.10;1.10;;;;;;;13.28;47.67;95714.63;4994113;28;20420;-58
2023/03/15 10:36:48;;;;;;;1.20;1.20;;;;;;;13.21;46.81;95714.75;4983088;28;20409;-56
2023/03/15 10:39:15;;;;;;;1.20;1.20;;;;;;;13.66;46.31;95713.25;4984695;28;20133;-57
2023/03/15 10:41:47;;;;;;;1.20;1.20;;;;;;;13.85;45.38;95708.94;4984396;28;20432;-55
2023/03/15 10:44:22;;;;;;;1.20;1.20;;;;;;;14.02;45.67;95684.81;4984008;28;20108;-56
2023/03/15 10:47:18;;;;;;;1.10;1.10;;;;;;;14.56;44.36;95692.50;4984577;28;20504;-56
2023/03/15 10:49:56;;;;;;;1.30;1.30;;;;;;;13.93;45.98;95692.91;5001952;28;20054;-56
2023/03/15 10:52:36;;;;;;;1.20;1.20;;;;;;;14.06;44.75;95619.47;5007359;28;20081;-58
2023/03/15 10:55:17;;;;;;;1.30;1.30;;;;;;;14.16;45.01;95678.97;5021145;28;20049;-56
2023/03/15 10:57:58;;;;;;;1.30;1.30;;;;;;;14.19;44.76;95680.91;5003522;28;20149;-57
2023/03/15 11:00:31;;;;;;;1.25;1.25;;;;;;;13.57;45.61;95640.66;5003385;28;20050;-57
2023/03/15 11:03:06;;;;;;;1.08;1.08;;;;;;;13.43;46.26;95677.06;5000911;28;20049;-55
2023/03/15 11:05:57;;;;;;;1.20;1.20;;;;;;;14.08;45.47;95669.16;5002252;28;20464;-56
2023/03/15 11:08:37;;;;;;;1.20;1.20;;;;;;;14.65;44.10;95664.09;5003642;28;20038;-56
2023/03/15 11:11:04;;;;;;;1.30;1.30;;;;;;;14.39;44.25;95653.88;5006325;28;20080;-57
2023/03/15 11:13:36;;;;;;;1.30;1.30;;;;;;;14.57;44.70;95659.88;5006780;28;20100;-55
2023/03/15 11:16:12;;;;;;;1.25;1.25;;;;;;;14.15;44.70;95660.66;5002690;28;20481;-55
2023/03/15 11:19:00;;;;;;;1.20;1.20;;;;;;;14.70;44.27;95660.78;5003002;28;20132;-56
2023/03/15 11:21:34;;;;;;;1.27;1.27;;;;;;;15.16;42.61;95632.66;5002010;28;20077;-57
2023/03/15 11:24:04;;;;;;;1.20;1.20;;;;;;;14.92;43.54;95653.53;4983390;28;20472;-56
2023/03/15 11:26:37;;;;;;;1.20;1.20;;;;;;;14.29;44.61;95646.53;5004849;28;20058;-53
2023/03/15 11:29:19;;;;;;;1.20;1.20;;;;;;;13.35;45.94;95664.47;5004870;28;20163;-57
2023/03/15 11:31:47;;;;;;;1.17;1.17;;;;;;;13.14;46.13;95611.97;4987867;28;20141;-57
2023/03/15 11:34:23;;;;;;;1.10;1.10;;;;;;;14.24;44.72;95658.91;5024277;28;20135;-56
2023/03/15 11:36:56;;;;;;;1.30;1.30;;;;;;;14.60;44.20;95637.50;4796651;28;5002517;-58
2023/03/15 11:39:56;;;;;;;1.30;1.30;;;;;;;15.62;42.45;95646.31;5009469;28;20057;-57
2023/03/15 11:42:46;;;;;;;1.38;1.38;;;;;;;15.77;41.58;95619.59;5002843;28;20516;-56
2023/03/15 11:45:38;;;;;;;1.55;1.55;;;;;;;16.29;41.05;95633.34;5004569;28;20100;-56
2023/03/15 11:48:42;;;;;;;1.33;1.33;;;;;;;15.00;43.63;95632.66;5005440;28;20061;-59
2023/03/15 11:51:11;;;;;;;1.50;1.50;;;;;;;15.53;42.00;95637.78;5006291;28;20531;-57